TPE weather

Taiwan Taoyuan International Airport
Taipei, Taoyuan County, Taiwan

Public forecast

Using degrees Celsius for public forecast. Weather courtesy of forecast.io.

Current aviation weather report (METAR) for Taiwan Taoyuan International Airport

Retrieved 2019/10/16 20:30 UTC (2 minutes ago):

RCTP 162030Z 07013KT 9999 FEW012 BKN060 23/19 Q1017 NOSIG RMK A3004

Aviation forecast (TAF) for Taiwan Taoyuan International Airport

Retrieved 2019/10/16 18:00 UTC (3 hours ago):

TAF RCTP 161700Z 1618/1724 07010KT 9999 FEW014 BKN032 BECMG 1622/1624 04020KT TEMPO 1702/1708 FEW012 BKN018 BKN030 BECMG 1710/1712 06013KT BECMG 1716/1718 08005KT